Station: Kapooka (Defence)  

  Atmospheric Gas Attenuation - ITU Rec 676-11   ----------------- dB/100km -----------------
Date Time Temp RH % AH g/m3 Dew Point Wind Direction Speed kph Gust kph Barometer mB Rainfall Since 9am 24GHz 47GHz 76GHz 122GHz 134GHz 241GHz
08/05 12:30 15.1 67 8.64 9 22 33 1013.1 0 19.6 25.6 39.3 103.1 97.3 334.7
08/05 12:20 15.1 69 8.9 9.4 19 24 1013.1 0 20.2 26.0 40.3 105.9 100.7 346.6
08/05 12:10 14.5 70 8.71 9.1 19 22 1013.1 0 19.8 25.9 39.9 104.7 98.9 340.5
08/05 12:00 14.4 72 8.9 9.4 19 28 1013.1 0 20.2 26.2 40.7 106.8 101.6 349.7
08/05 11:50 14.1 73 8.86 9.3 20 24 1013.1 0 20.1 26.2 40.7 106.8 101.4 349.2
08/05 11:40 14.2 72 8.79 9.2 19 30 1013.1 0 20.0 26.1 40.4 105.9 100.4 345.5
08/05 11:30 14.2 73 8.91 9.4 20 33 1013.1 0 20.2 26.3 40.8 107.2 102.0 351.1
08/05 11:20 13.4 76 8.84 9.2 24 32 1013.1 0 20.1 26.4 41.0 107.6 102.1 351.4
08/05 11:10 13.1 77 8.79 9.1 20 26 1013.1 0 20.0 26.4 40.9 107.4 101.8 350.4
08/05 11:00 12.7 77 8.57 8.8 20 33 1013.1 0 19.6 26.2 40.2 105.6 99.4 341.8
08/05 10:50 12.7 77 8.57 8.9 15 20 1013.1 0 19.6 26.2 40.2 105.6 99.4 341.8
08/05 10:40 12.5 79 8.69 8.9 26 33 1013.1 0 19.8 26.4 40.8 107.2 101.3 348.4
08/05 10:30 12.1 81 8.69 8.9 20 35 1013.1 0 19.9 26.5 41.0 107.7 101.8 350.1
08/05 10:20 12.1 80 8.58 8.7 19 26 1013.1 0 19.6 26.4 40.6 106.5 100.3 344.9
08/05 10:10 11.7 79 8.26 8.3 22 28 1013.1 0 19.0 25.9 39.5 103.5 96.5 331.6
08/05 10:00 11.4 81 8.32 8.3 17 26 1013.1 0 19.1 26.1 39.9 104.6 97.7 335.7
08/05 09:50 11.4 81 8.32 8.2 17 24 1013.1 0 19.1 26.1 39.9 104.6 97.7 335.7
08/05 09:40 11.1 82 8.26 8.1 15 20 1013.1 0 19.0 26.1 39.8 104.3 97.3 334.1
08/05 09:30 11 82 8.21 8.1 15 28 1013.1 0 18.9 26.1 39.6 103.9 96.7 332.2
08/05 09:20 11 83 8.31 8.2 13 26 1013.1 0 19.1 26.2 40.0 105.0 98.1 336.9
08/05 09:10 10.6 83 8.1 7.8 13 17 1013.1 0 18.7 26.0 39.4 103.2 95.7 328.7
08/05 09:00 10.4 83 8 7.6 13 24 1013.1 0 18.5 25.9 39.0 102.4 94.6 324.8
08/05 08:50 10.3 83 7.95 7.5 17 26 1013.1 0 18.4 25.8 38.9 102.0 94.1 322.8
08/05 08:40 10.2 84 8 7.6 13 20 1013.1 0 18.5 26.0 39.1 102.7 94.9 325.6
08/05 08:30 10 85 7.99 7.6 13 22 1013.1 0 18.5 26.0 39.2 102.8 95.0 326.0
08/05 08:20 9.9 84 7.85 7.3 20 28 1013.1 0 18.2 25.8 38.7 101.4 93.2 319.7
08/05 08:10 9.6 84 7.7 7 13 20 1013.1 0 17.9 25.6 38.2 100.2 91.5 313.8
08/05 08:00 9.6 83 7.61 6.9 13 28 1013.1 0 17.7 25.5 37.8 99.2 90.3 309.6
08/05 07:50 9.4 83 7.51 6.6 11 17 1013.1 0 17.5 25.4 37.5 98.3 89.2 305.6
08/05 07:40 9.4 83 7.51 6.6 15 22 1013.1 0 17.5 25.4 37.5 98.3 89.2 305.6
08/05 07:30 9.4 82 7.42 6.5 9 19 1013.1 0 17.3 25.2 37.2 97.3 88.0 301.4
08/05 07:20 9.4 81 7.33 6.4 9 13 1013.1 0 17.1 25.1 36.8 96.4 86.8 297.2
08/05 07:10 9.5 80 7.28 6.2 7 15 1013.1 0 17.0 25.0 36.5 95.7 86.0 294.4
08/05 07:00 10 78 7.33 6.3 13 20 1013.1 0 17.0 24.9 36.5 95.6 86.1 294.9
08/05 06:50 9.9 80 7.47 6.6 11 17 1013.1 0 17.3 25.2 37.1 97.3 88.1 301.8
08/05 06:40 9.9 79 7.38 6.4 9 13 1013.1 0 17.2 25.0 36.8 96.3 86.9 297.6
08/05 06:30 9.9 79 7.38 6.4 9 15 1013.1 0 17.2 25.0 36.8 96.3 86.9 297.6
08/05 06:20 9.8 79 7.33 6.3 13 17 1013.1 0 17.1 25.0 36.6 95.9 86.3 295.7
08/05 06:10 9.7 79 7.29 6.2 9 17 1013.1 0 17.0 24.9 36.5 95.6 85.9 294.2
08/05 06:00 9.5 79 7.19 6 9 15 1013.1 0 16.8 24.8 36.2 94.7 84.8 290.3
08/05 05:50 9.4 79 7.15 5.9 9 11 1013.1 0 16.7 24.8 36.1 94.4 84.4 288.8
08/05 05:40 9.3 79 7.1 5.8 11 15 1013.1 0 16.6 24.7 35.9 94.0 83.8 286.8
08/05 05:30 9.2 79 7.06 5.8 9 17 1013.1 0 16.5 24.7 35.8 93.7 83.4 285.3
08/05 05:20 9 80 7.06 5.7 7 11 1013.1 0 16.5 24.8 35.9 93.9 83.6 286.0
08/05 05:10 8.9 79 6.92 5.4 9 13 1013.1 0 16.2 24.6 35.4 92.5 81.9 279.9
08/05 05:00 9.1 78 6.92 5.5 6 13 1013.1 0 16.2 24.5 35.3 92.3 81.6 279.2
08/05 04:50 9.2 76 6.79 5.3 9 13 1013.1 0 15.9 24.3 34.7 90.8 79.8 272.8
08/05 04:40 9.2 76 6.79 5.3 7 11 1013.1 0 15.9 24.3 34.7 90.8 79.8 272.8
08/05 04:30 9.1 77 6.83 5.3 11 17 1013.1 0 16.0 24.4 34.9 91.3 80.5 275.0
08/05 04:20 9 77 6.79 5.3 11 17 1013.1 0 15.9 24.3 34.8 91.0 80.0 273.5
08/05 04:10 9 77 6.79 5.3 11 15 1013.1 0 15.9 24.3 34.8 91.0 80.0 273.5
08/05 04:00 8.8 78 6.79 5.2 7 13 1013.1 0 15.9 24.4 34.9 91.3 80.2 274.2
08/05 03:50 8.7 77 6.66 5 6 7 1013.1 0 15.7 24.2 34.4 90.0 78.6 268.5
08/05 03:40 8.7 77 6.66 5 6 7 1013.1 0 15.7 24.2 34.4 90.0 78.6 268.5
08/05 03:30 8.6 79 6.79 5.2 6 9 1013.1 0 15.9 24.4 35.0 91.5 80.4 274.9
08/05 03:20 8.5 78 6.66 5 4 6 1013.1 0 15.7 24.2 34.5 90.2 78.8 269.2
08/05 03:10 8.3 78 6.58 4.7 6 7 1013.1 0 15.5 24.2 34.3 89.6 78.0 266.2
08/05 03:00 8.2 79 6.62 4.8 4 6 1013.1 0 15.6 24.3 34.5 90.1 78.6 268.4
08/05 02:50 8.5 77 6.58 4.7 4 6 1013.1 0 15.5 24.1 34.2 89.4 77.8 265.5
08/05 02:40 8.6 76 6.53 4.6 7 9 1013.1 0 15.4 24.0 33.9 88.7 77.0 262.9
08/05 02:30 8.6 75 6.45 4.4 9 15 1013.1 0 15.2 23.9 33.6 87.9 76.0 259.2
08/05 02:20 8.4 77 6.53 4.6 2 4 1013.1 0 15.4 24.1 34.0 89.0 77.2 263.6
08/05 02:10 8.4 78 6.62 4.8 4 4 1013.1 0 15.6 24.2 34.4 89.9 78.4 267.7
08/05 02:00 8.3 77 6.49 4.5 4 7 1013.1 0 15.3 24.0 33.9 88.6 76.8 262.1
08/05 01:50 8.3 78 6.58 4.7 4 6 1013.1 0 15.5 24.2 34.3 89.6 78.0 266.2
08/05 01:40 8.3 77 6.49 4.5 6 7 1013.1 0 15.3 24.0 33.9 88.6 76.8 262.1
08/05 01:30 8.3 76 6.41 4.3 6 9 1013.1 0 15.1 23.9 33.6 87.8 75.7 258.4
08/05 01:20 8.3 76 6.41 4.3 6 6 1013.1 0 15.1 23.9 33.6 87.8 75.7 258.4
08/05 01:10 8.5 74 6.32 4.1 6 7 1013.1 0 14.9 23.7 33.1 86.6 74.4 253.6
08/05 01:00 8.6 75 6.45 4.4 9 13 1013.1 0 15.2 23.9 33.6 87.9 76.0 259.2
08/05 00:50 8.6 75 6.45 4.4 11 15 1013.1 0 15.2 23.9 33.6 87.9 76.0 259.2
08/05 00:40 8.5 76 6.49 4.5 7 11 1013.1 0 15.3 24.0 33.8 88.4 76.6 261.4
08/05 00:20 8 78 6.45 4.4 7 9 1013.1 0 15.2 24.0 33.9 88.6 76.6 261.2
08/05 00:10 7.9 78 6.41 4.4 7 7 1013.1 0 15.2 24.0 33.7 88.2 76.1 259.7
08/05 00:00 7.9 77 6.33 4.1 6 9 1013.1 0 15.0 23.9 33.4 87.4 75.1 256.0
07/05 23:50 8 77 6.37 4.2 6 7 1013.1 0 15.1 23.9 33.5 87.7 75.5 257.5
07/05 23:40 8.2 75 6.28 4 6 9 1013.1 0 14.9 23.7 33.1 86.5 74.1 252.8
07/05 23:30 8.4 76 6.45 4.4 7 13 1013.1 0 15.2 23.9 33.7 88.1 76.2 259.9
07/05 23:20 8.1 78 6.49 4.5 6 7 1013.1 0 15.3 24.1 34.0 88.9 77.0 262.7
07/05 23:10 7.8 77 6.29 4 4 4 1013.1 0 14.9 23.8 33.3 87.1 74.7 254.5
07/05 23:00 7.8 76 6.21 3.8 6 9 1013.1 0 14.7 23.7 33.0 86.2 73.6 250.8
07/05 22:50 7.7 76 6.17 3.7 6 7 1013.1 0 14.6 23.7 32.9 85.9 73.2 249.3
07/05 22:40 7.4 77 6.13 3.6 7 9 1013.1 0 14.6 23.7 32.8 85.8 72.9 248.4
07/05 22:30 7.3 77 6.09 3.5 7 9 1013.1 0 14.5 23.6 32.7 85.5 72.5 246.9
07/05 22:20 7.2 78 6.13 3.6 7 9 1013.1 0 14.6 23.7 32.9 86.0 73.1 249.1
07/05 22:10 7.1 78 6.09 3.5 6 7 1013.1 0 14.5 23.7 32.8 85.7 72.7 247.5
07/05 22:00 7.2 78 6.13 3.6 7 9 1013.1 0 14.6 23.7 32.9 86.0 73.1 249.1
07/05 21:50 7.3 77 6.09 3.5 7 9 1013.1 0 14.5 23.6 32.7 85.5 72.5 246.9
07/05 21:40 7.5 76 6.09 3.5 11 13 1013.1 0 14.5 23.6 32.6 85.3 72.3 246.3
07/05 21:30 7.8 75 6.12 3.7 13 20 1013.1 0 14.5 23.6 32.6 85.3 72.4 246.7
07/05 21:20 8 74 6.12 3.6 15 17 1013.1 0 14.5 23.5 32.6 85.1 72.3 246.1
07/05 21:10 8.2 73 6.12 3.6 13 15 1013.1 0 14.5 23.5 32.5 84.8 72.1 245.5
07/05 21:00 8.4 71 6.03 3.5 17 24 1013.1 0 14.3 23.3 32.0 83.7 70.7 240.8
07/05 20:50 8.8 69 6.01 3.4 20 26 1013.1 0 14.3 23.1 31.8 83.1 70.1 238.7
07/05 20:40 9.1 68 6.04 3.5 13 15 1013.1 0 14.3 23.1 31.8 83.1 70.2 239.1
07/05 20:30 9 68 6 3.4 11 19 1013.1 0 14.2 23.1 31.7 82.8 69.8 237.6
07/05 20:20 8.9 69 6.05 3.5 9 15 1013.1 0 14.3 23.2 31.9 83.4 70.5 240.2
07/05 20:10 8.7 70 6.06 3.5 6 7 1013.1 0 14.4 23.2 32.0 83.7 70.8 241.2
07/05 20:00 8.8 69 6.01 3.4 6 9 1013.1 0 14.3 23.1 31.8 83.1 70.1 238.7
07/05 19:50 9 67 5.91 3.2 4 6 1013.1 0 14.0 22.9 31.3 81.8 68.7 233.6

Last Refresh: 08-May-2026 12:07:35

Bureau of Meteorology